createdAt,value
2023-03-01T00:00:00.453Z,4.05
2023-03-01T00:10:01.755Z,3.97
2023-03-01T00:20:03.019Z,3.42
2023-03-01T00:30:06.287Z,3.50
2023-03-01T00:40:07.554Z,3.42
2023-03-01T00:50:08.824Z,3.42
2023-03-01T01:00:10.083Z,3.55
2023-03-01T01:10:11.320Z,3.92
2023-03-01T01:20:12.571Z,3.00
2023-03-01T01:30:13.881Z,3.70
2023-03-01T01:40:15.182Z,4.38
2023-03-01T01:50:16.451Z,3.40
2023-03-01T02:00:17.699Z,3.83
2023-03-01T02:10:18.936Z,4.03
2023-03-01T02:20:20.207Z,3.72
2023-03-01T02:30:21.464Z,3.05
2023-03-01T02:40:22.725Z,3.40
2023-03-01T02:50:24.010Z,3.15
2023-03-01T03:00:25.241Z,3.75
2023-03-01T03:10:26.495Z,3.40
2023-03-01T03:20:27.762Z,3.38
2023-03-01T03:30:29.014Z,3.83
2023-03-01T03:40:30.297Z,3.15
2023-03-01T03:50:31.576Z,3.10
2023-03-01T04:00:32.868Z,3.00
2023-03-01T04:10:34.232Z,3.53
2023-03-01T04:20:35.482Z,3.10
2023-03-01T04:30:36.734Z,3.25
2023-03-01T04:40:37.965Z,3.63
2023-03-01T04:50:39.243Z,3.17
2023-03-01T05:00:40.555Z,2.88
2023-03-01T05:10:41.832Z,3.25
2023-03-01T05:20:43.076Z,3.20
2023-03-01T05:30:44.425Z,3.47
2023-03-01T05:40:45.685Z,3.10
2023-03-01T05:50:46.947Z,3.25
2023-03-01T06:00:48.240Z,3.30
2023-03-01T06:10:49.487Z,2.78
2023-03-01T06:20:50.761Z,3.53
2023-03-01T06:30:52.076Z,2.97
2023-03-01T06:40:53.332Z,3.38
2023-03-01T06:50:54.691Z,3.10
2023-03-01T07:00:56.035Z,2.70
2023-03-01T07:10:59.662Z,4.15
2023-03-01T07:21:00.940Z,2.97
2023-03-01T07:31:02.204Z,3.40
2023-03-01T07:41:03.475Z,4.30
2023-03-01T07:51:04.755Z,4.38
2023-03-01T08:01:06.096Z,4.10
2023-03-01T08:11:07.384Z,3.92
2023-03-01T08:21:08.658Z,3.72
2023-03-01T08:31:09.922Z,4.05
2023-03-01T08:41:11.208Z,3.60
2023-03-01T08:51:12.474Z,3.95
2023-03-01T09:01:13.721Z,3.47
2023-03-01T09:11:14.964Z,3.42
2023-03-01T09:21:16.220Z,3.60
2023-03-01T09:31:17.542Z,3.35
2023-03-01T09:41:18.821Z,3.05
2023-03-01T09:51:20.109Z,3.20
2023-03-01T10:01:21.343Z,3.53
2023-03-01T10:11:24.871Z,3.15
2023-03-01T10:21:26.435Z,4.18
2023-03-01T10:31:27.814Z,4.30
2023-03-01T10:41:29.546Z,3.83
2023-03-01T10:51:31.451Z,3.30
2023-03-01T11:01:33.270Z,3.42
2023-03-01T11:11:35.023Z,3.80
2023-03-01T11:21:37.707Z,3.10
2023-03-01T11:31:44.018Z,4.53
2023-03-01T11:41:47.861Z,3.28
2023-03-01T11:51:49.107Z,3.58
2023-03-01T12:01:50.394Z,4.30
2023-03-01T12:11:51.686Z,3.88
2023-03-01T12:21:52.937Z,3.80
2023-03-01T12:31:54.244Z,3.30
2023-03-01T12:41:55.626Z,3.65
2023-03-01T12:51:57.601Z,3.88
2023-03-01T13:01:58.963Z,3.47
2023-03-01T13:12:01.694Z,4.13
2023-03-01T13:22:04.102Z,3.35
2023-03-01T13:32:05.516Z,3.20
2023-03-01T13:42:06.929Z,3.70
2023-03-01T13:52:08.166Z,4.10
2023-03-01T14:02:09.444Z,3.08
2023-03-01T14:12:10.768Z,3.80
2023-03-01T14:22:12.051Z,3.15
2023-03-01T14:32:13.320Z,2.72
2023-03-01T14:42:15.923Z,3.47
2023-03-01T14:52:17.323Z,3.83
2023-03-01T15:02:18.599Z,3.38
2023-03-01T15:12:19.881Z,3.70
2023-03-01T15:22:23.806Z,2.80
2023-03-01T15:32:28.424Z,3.35
2023-03-01T15:42:30.874Z,3.92
2023-03-01T15:52:32.155Z,2.97
2023-03-01T16:02:33.716Z,3.15
2023-03-01T16:12:34.981Z,3.05
2023-03-01T16:22:36.264Z,3.92
2023-03-01T16:32:37.560Z,3.10
2023-03-01T16:42:40.592Z,3.03
2023-03-01T16:52:41.930Z,3.97
2023-03-01T17:02:43.361Z,3.42
2023-03-01T17:12:53.659Z,4.10
2023-03-01T17:22:57.555Z,3.80
2023-03-01T17:33:08.296Z,4.30
2023-03-01T17:43:09.743Z,5.88
2023-03-01T17:53:11.036Z,5.90
2023-03-01T18:03:12.280Z,5.82
2023-03-01T18:13:13.550Z,6.07
2023-03-01T18:23:14.805Z,7.15
2023-03-01T18:33:16.199Z,7.20
2023-03-01T18:43:17.487Z,6.28
2023-03-01T18:53:18.732Z,5.40
2023-03-01T19:03:20.094Z,4.60
2023-03-01T19:13:21.414Z,5.47
2023-03-01T19:23:22.690Z,5.75
2023-03-01T19:33:23.977Z,5.35
2023-03-01T19:43:25.276Z,5.57
2023-03-01T19:53:26.545Z,5.00
2023-03-01T20:03:27.861Z,4.78
2023-03-01T20:13:29.106Z,4.97
2023-03-01T20:23:30.423Z,4.55
2023-03-01T20:33:31.711Z,4.32
2023-03-01T20:43:32.981Z,5.43
2023-03-01T20:53:34.229Z,5.22
2023-03-01T21:03:35.545Z,4.57
2023-03-01T21:13:36.858Z,4.82
2023-03-01T21:23:38.125Z,3.90
2023-03-01T21:33:39.383Z,4.20
2023-03-01T21:43:40.646Z,4.63
2023-03-01T21:53:41.990Z,4.70
2023-03-01T22:03:43.309Z,4.45
2023-03-01T22:13:44.604Z,4.75
2023-03-01T22:23:45.852Z,4.40
2023-03-01T22:33:47.120Z,3.63
2023-03-01T22:43:48.406Z,5.40
2023-03-01T22:53:49.668Z,4.10
2023-03-01T23:03:50.968Z,4.07
2023-03-01T23:13:53.587Z,3.47
2023-03-01T23:23:54.965Z,3.45
2023-03-01T23:33:56.325Z,4.15
2023-03-01T23:43:57.580Z,3.78
2023-03-01T23:53:58.812Z,4.03
